Portada
METAR-TAF:

METAR-TAF

Aeropuertos :

Aeropuerto de Cairns

Cairns, Australia

latitud: 16-53S, longitud: 145-45E, altitud: 3 m

Observación

El informe se hizo hace 19 minutos, a las 10:30 UTC
Viento 12 kt del sur-sureste
Temperatura 19°C
Humedad 73%
Presión 1019 hPa
Visibilidad 10 km o más

METAR: YBCS 051030Z AUTO 16012KT 9999 // NCD 19/14 Q1019 NOSIG

Hora: 20:49 (10:49 UTC)

Pronóstico

El informe se hizo hace 5 horas y 44 minutos, a las 05:05 UTC
Pronóstico válido del 05 a las 06 UTC al 06 a las 06 UTC
Viento 16 kt del sureste
Visibilidad 10 km o más
Escasas nubes a una altura de 3000 ft
A partir de las 05 a las 0800 UTC
Viento 10 kt del sur
Visibilidad 10 km o más
Nubes dispersas a una altura de 3000 ft
A partir de las 06 a las 0000 UTC
Viento 18 kt del sureste
Visibilidad 10 km o más
Escasas nubes a una altura de 3000 ft

TAF: YBCS 050505Z 0506/0606 14016KT 9999 FEW030 FM050800 17010KT 9999 SCT030 FM060000 14018KT 9999 FEW030

Observaciones y pronósticos meteorológicos de más de 4000 aeropuertos (mensajes METAR y TAF).

Los puntos amarillos y rojos representan las estaciones disponibles.

Ponga el ratón en el punto deseado para ver el nombre de la estación.

Haga clic para ver las observaciones y los pronósticos meteorológicos.

Para cambiar el mapa : haga clic en los botones verdes con una cruz de color negro para hacer un zoom, en el botón verde con un guión para alejar o en las flechas verdes para mapas adyacentes.


METAR-TAF: